Hlavní strana
METAR-TAF:

METAR-TAF

Letiště :

Moroni, Komory

zeměpisná šířka: 11-32S, zeměpisná délka: 043-16E, výška: 29 m

Aktuální stav počasí

Zpráva byla vytvořena před 4 hodinami a 19 minutami, v 18:00 UTC
Východojihovýchodní vítr 4 kt
Teplota 25°C
Vlhkost vzduchu 89%
Tlak 1014 hPa
Viditelnost 10 km a více
Skoro jasno ve výšce 2500 ft

METAR: FMCH 251800Z 11004KT 9999 FEW025 25/23 Q1014 NOSIG

Čas: 01:19 (22:19 UTC)

Předpověď počasí

Zpráva byla vytvořena před 5 hodinami a 19 minutami, v 17:00 UTC
Předpověď platná od 25 v 18 UTC do 26 v 24 UTC
Východní vítr 3 kt
Viditelnost 10 km a více
Skoro jasno ve výšce 2000 ft
Polojasno ve výšce 2500 ft
Změna
od 26 v 04 UTC do 26 v 06 UTC
Jižní vítr 10 kt
Změna
od 26 v 15 UTC do 26 v 17 UTC
Východojihovýchodní vítr 3 kt

TAF: FMCH 251700Z 2518/2624 10003KT 9999 FEW020 SCT025 BECMG 2604/2606 19010KT BECMG 2615/2617 11003KT

Stav a předpovědi počasí z více než 4 000 letišť (zprávy METAR a TAF).

Červené a žluté tečky na mapě představují dostupné meteorologické stanice.

Když kurzor umístíte na tečku, zobrazí se název stanice.

Pak kliknutím zobrazíte stav a předpověď počasí.

Chcete-li změnit mapu, kliknutím na zelené tlačítko se znaménkem +mapu přiblížíte, kliknutím na zelené tlačítko se znaménkem – mapu oddálíte a kliknutím na zelené šipky přejdete na sousední mapy.


METAR-TAF: